Terminal Aerodrome Forecast
Issued by NWS

Home | Current Version | Previous Version | Text Only | Print | Product List | Glossary On
Versions: 1 2 3 4 5 6 7 8 9 10 11 12 13 14 15
000
FTUS45 KPSR 252300
TAFIWA
TAF
KIWA 252320Z 2600/2624 27007KT P6SM SCT080 SCT250
     FM260400 12005KT P6SM SCT250
     FM261900 29005KT P6SM SCT120 SCT250
      AMD LTD TO CLD VIS AND WIND 2603/2613=

USA.gov is the U.S. government's official web portal to all federal, state and local government web resources and services.